sensor_id;sensor_type;location;lat;lon;timestamp;temperature;humidity
10155;DHT22;5118;48.570;7.916;2023-04-07T00:00:32;9.30;99.90
10155;DHT22;5118;48.570;7.916;2023-04-07T00:03:00;9.20;99.90
10155;DHT22;5118;48.570;7.916;2023-04-07T00:05:33;9.10;99.90
10155;DHT22;5118;48.570;7.916;2023-04-07T00:08:01;9.10;99.90
10155;DHT22;5118;48.570;7.916;2023-04-07T00:10:29;9.00;99.90
10155;DHT22;5118;48.570;7.916;2023-04-07T00:12:58;9.00;99.90
10155;DHT22;5118;48.570;7.916;2023-04-07T00:15:28;8.90;99.90
10155;DHT22;5118;48.570;7.916;2023-04-07T00:17:56;8.90;99.90
10155;DHT22;5118;48.570;7.916;2023-04-07T00:20:24;8.80;99.90
10155;DHT22;5118;48.570;7.916;2023-04-07T00:22:53;8.80;99.90
10155;DHT22;5118;48.570;7.916;2023-04-07T00:25:21;8.70;99.90
10155;DHT22;5118;48.570;7.916;2023-04-07T00:27:49;8.70;99.90
10155;DHT22;5118;48.570;7.916;2023-04-07T00:30:17;8.70;99.90
10155;DHT22;5118;48.570;7.916;2023-04-07T00:32:47;8.60;99.90
10155;DHT22;5118;48.570;7.916;2023-04-07T00:35:17;8.60;99.90
10155;DHT22;5118;48.570;7.916;2023-04-07T00:37:46;8.50;99.90
10155;DHT22;5118;48.570;7.916;2023-04-07T00:40:14;8.40;99.90
10155;DHT22;5118;48.570;7.916;2023-04-07T00:42:44;8.40;99.90
10155;DHT22;5118;48.570;7.916;2023-04-07T00:45:12;8.30;99.90
10155;DHT22;5118;48.570;7.916;2023-04-07T00:47:40;8.20;99.90
10155;DHT22;5118;48.570;7.916;2023-04-07T00:50:10;8.10;99.90
10155;DHT22;5118;48.570;7.916;2023-04-07T00:52:39;8.00;99.90
10155;DHT22;5118;48.570;7.916;2023-04-07T00:55:08;7.90;99.90
10155;DHT22;5118;48.570;7.916;2023-04-07T00:57:36;7.80;99.90
10155;DHT22;5118;48.570;7.916;2023-04-07T01:00:06;7.80;99.90
10155;DHT22;5118;48.570;7.916;2023-04-07T01:02:41;7.80;99.90
10155;DHT22;5118;48.570;7.916;2023-04-07T01:05:16;7.70;99.90
10155;DHT22;5118;48.570;7.916;2023-04-07T01:07:57;7.70;99.90
10155;DHT22;5118;48.570;7.916;2023-04-07T01:10:28;7.70;99.90
10155;DHT22;5118;48.570;7.916;2023-04-07T01:13:07;7.70;99.90
10155;DHT22;5118;48.570;7.916;2023-04-07T01:15:38;7.70;99.90
10155;DHT22;5118;48.570;7.916;2023-04-07T01:18:12;7.70;99.90
10155;DHT22;5118;48.570;7.916;2023-04-07T01:20:44;7.70;99.90
10155;DHT22;5118;48.570;7.916;2023-04-07T01:23:21;7.70;99.90
10155;DHT22;5118;48.570;7.916;2023-04-07T01:26:04;7.70;99.90
10155;DHT22;5118;48.570;7.916;2023-04-07T01:28:54;7.80;99.90
10155;DHT22;5118;48.570;7.916;2023-04-07T01:31:25;7.80;99.90
10155;DHT22;5118;48.570;7.916;2023-04-07T01:33:54;7.80;99.90
10155;DHT22;5118;48.570;7.916;2023-04-07T01:36:26;7.80;99.90
10155;DHT22;5118;48.570;7.916;2023-04-07T01:38:56;7.80;99.90
10155;DHT22;5118;48.570;7.916;2023-04-07T01:41:26;7.90;99.90
10155;DHT22;5118;48.570;7.916;2023-04-07T01:43:55;7.90;99.90
10155;DHT22;5118;48.570;7.916;2023-04-07T01:46:25;7.90;99.90
10155;DHT22;5118;48.570;7.916;2023-04-07T01:48:55;7.90;99.90
10155;DHT22;5118;48.570;7.916;2023-04-07T01:51:24;7.90;99.90
10155;DHT22;5118;48.570;7.916;2023-04-07T01:53:53;7.90;99.90
10155;DHT22;5118;48.570;7.916;2023-04-07T01:56:22;7.90;99.90
10155;DHT22;5118;48.570;7.916;2023-04-07T01:58:52;7.90;99.90
10155;DHT22;5118;48.570;7.916;2023-04-07T02:01:22;7.90;99.90
10155;DHT22;5118;48.570;7.916;2023-04-07T02:03:56;7.90;99.90
10155;DHT22;5118;48.570;7.916;2023-04-07T02:06:33;7.90;99.90
10155;DHT22;5118;48.570;7.916;2023-04-07T02:09:06;7.90;99.90
10155;DHT22;5118;48.570;7.916;2023-04-07T02:11:36;7.90;99.90
10155;DHT22;5118;48.570;7.916;2023-04-07T02:14:06;7.90;99.90
10155;DHT22;5118;48.570;7.916;2023-04-07T02:16:50;7.80;99.90
10155;DHT22;5118;48.570;7.916;2023-04-07T02:19:21;7.80;99.90
10155;DHT22;5118;48.570;7.916;2023-04-07T02:21:50;7.80;99.90
10155;DHT22;5118;48.570;7.916;2023-04-07T02:24:19;7.80;99.90
10155;DHT22;5118;48.570;7.916;2023-04-07T02:26:48;7.80;99.90
10155;DHT22;5118;48.570;7.916;2023-04-07T02:29:17;7.80;99.90
10155;DHT22;5118;48.570;7.916;2023-04-07T02:31:45;7.80;99.90
10155;DHT22;5118;48.570;7.916;2023-04-07T02:34:13;7.80;99.90
10155;DHT22;5118;48.570;7.916;2023-04-07T02:36:43;7.80;99.90
10155;DHT22;5118;48.570;7.916;2023-04-07T02:39:11;7.80;99.90
10155;DHT22;5118;48.570;7.916;2023-04-07T02:41:40;7.80;99.90
10155;DHT22;5118;48.570;7.916;2023-04-07T02:44:08;7.80;99.90
10155;DHT22;5118;48.570;7.916;2023-04-07T02:46:36;7.80;99.90
10155;DHT22;5118;48.570;7.916;2023-04-07T02:49:05;7.90;99.90
10155;DHT22;5118;48.570;7.916;2023-04-07T02:51:33;7.90;99.90
10155;DHT22;5118;48.570;7.916;2023-04-07T02:54:03;7.90;99.90
10155;DHT22;5118;48.570;7.916;2023-04-07T02:56:31;7.90;99.90
10155;DHT22;5118;48.570;7.916;2023-04-07T02:58:59;7.90;99.90
10155;DHT22;5118;48.570;7.916;2023-04-07T03:01:29;7.80;99.90
10155;DHT22;5118;48.570;7.916;2023-04-07T03:03:57;7.80;99.90
10155;DHT22;5118;48.570;7.916;2023-04-07T03:06:26;7.70;99.90
10155;DHT22;5118;48.570;7.916;2023-04-07T03:09:08;7.60;99.90
10155;DHT22;5118;48.570;7.916;2023-04-07T03:11:36;7.60;99.90
10155;DHT22;5118;48.570;7.916;2023-04-07T03:14:04;7.60;99.90
10155;DHT22;5118;48.570;7.916;2023-04-07T03:16:39;7.50;99.90
10155;DHT22;5118;48.570;7.916;2023-04-07T03:19:10;7.50;99.90
10155;DHT22;5118;48.570;7.916;2023-04-07T03:21:44;7.50;99.90
10155;DHT22;5118;48.570;7.916;2023-04-07T03:24:13;7.50;99.90
10155;DHT22;5118;48.570;7.916;2023-04-07T03:26:42;7.50;99.90
10155;DHT22;5118;48.570;7.916;2023-04-07T03:29:22;7.50;99.90
10155;DHT22;5118;48.570;7.916;2023-04-07T03:31:51;7.60;99.90
10155;DHT22;5118;48.570;7.916;2023-04-07T03:34:23;7.60;99.90
10155;DHT22;5118;48.570;7.916;2023-04-07T03:36:51;7.70;99.90
10155;DHT22;5118;48.570;7.916;2023-04-07T03:39:21;7.80;99.90
10155;DHT22;5118;48.570;7.916;2023-04-07T03:41:54;7.80;99.90
10155;DHT22;5118;48.570;7.916;2023-04-07T03:44:25;7.90;99.90
10155;DHT22;5118;48.570;7.916;2023-04-07T03:46:54;7.90;99.90
10155;DHT22;5118;48.570;7.916;2023-04-07T03:49:24;7.90;99.90
10155;DHT22;5118;48.570;7.916;2023-04-07T03:51:54;8.00;99.90
10155;DHT22;5118;48.570;7.916;2023-04-07T03:54:24;8.00;99.90
10155;DHT22;5118;48.570;7.916;2023-04-07T03:56:53;8.00;99.90
10155;DHT22;5118;48.570;7.916;2023-04-07T03:59:22;8.00;99.90
10155;DHT22;5118;48.570;7.916;2023-04-07T04:01:56;8.10;99.90
10155;DHT22;5118;48.570;7.916;2023-04-07T04:04:25;8.00;99.90
10155;DHT22;5118;48.570;7.916;2023-04-07T04:06:54;8.00;99.90
10155;DHT22;5118;48.570;7.916;2023-04-07T04:09:44;8.00;99.90
10155;DHT22;5118;48.570;7.916;2023-04-07T04:12:12;8.00;99.90
10155;DHT22;5118;48.570;7.916;2023-04-07T04:14:49;8.00;99.90
10155;DHT22;5118;48.570;7.916;2023-04-07T04:17:19;8.00;99.90
10155;DHT22;5118;48.570;7.916;2023-04-07T04:19:47;8.00;99.90
10155;DHT22;5118;48.570;7.916;2023-04-07T04:22:29;8.00;99.90
10155;DHT22;5118;48.570;7.916;2023-04-07T04:24:59;7.90;99.90
10155;DHT22;5118;48.570;7.916;2023-04-07T04:27:28;7.90;99.90
10155;DHT22;5118;48.570;7.916;2023-04-07T04:30:06;7.90;99.90
10155;DHT22;5118;48.570;7.916;2023-04-07T04:32:40;7.90;99.90
10155;DHT22;5118;48.570;7.916;2023-04-07T04:35:09;7.90;99.90
10155;DHT22;5118;48.570;7.916;2023-04-07T04:37:46;7.90;99.90
10155;DHT22;5118;48.570;7.916;2023-04-07T04:40:16;8.00;99.90
10155;DHT22;5118;48.570;7.916;2023-04-07T04:42:47;8.00;99.90
10155;DHT22;5118;48.570;7.916;2023-04-07T04:45:17;8.00;99.90
10155;DHT22;5118;48.570;7.916;2023-04-07T04:47:47;8.00;99.90
10155;DHT22;5118;48.570;7.916;2023-04-07T04:50:16;8.00;99.90
10155;DHT22;5118;48.570;7.916;2023-04-07T04:52:45;8.00;99.90
10155;DHT22;5118;48.570;7.916;2023-04-07T04:55:22;8.00;99.90
10155;DHT22;5118;48.570;7.916;2023-04-07T04:57:52;8.00;99.90
10155;DHT22;5118;48.570;7.916;2023-04-07T05:00:29;8.00;99.90
10155;DHT22;5118;48.570;7.916;2023-04-07T05:03:01;8.00;99.90
10155;DHT22;5118;48.570;7.916;2023-04-07T05:05:35;8.00;99.90
10155;DHT22;5118;48.570;7.916;2023-04-07T05:08:04;8.00;99.90
10155;DHT22;5118;48.570;7.916;2023-04-07T05:10:38;8.00;99.90
10155;DHT22;5118;48.570;7.916;2023-04-07T05:13:11;8.00;99.90
10155;DHT22;5118;48.570;7.916;2023-04-07T05:15:40;8.00;99.90
10155;DHT22;5118;48.570;7.916;2023-04-07T05:18:11;8.00;99.90
10155;DHT22;5118;48.570;7.916;2023-04-07T05:20:40;8.00;99.90
10155;DHT22;5118;48.570;7.916;2023-04-07T05:23:11;8.00;99.90
10155;DHT22;5118;48.570;7.916;2023-04-07T05:25:41;8.10;99.90
10155;DHT22;5118;48.570;7.916;2023-04-07T05:28:09;8.10;99.90
10155;DHT22;5118;48.570;7.916;2023-04-07T05:30:37;8.20;99.90
10155;DHT22;5118;48.570;7.916;2023-04-07T05:33:05;8.30;99.90
10155;DHT22;5118;48.570;7.916;2023-04-07T05:35:43;8.40;99.90
10155;DHT22;5118;48.570;7.916;2023-04-07T05:38:11;8.50;99.90
10155;DHT22;5118;48.570;7.916;2023-04-07T05:40:42;8.50;99.90
10155;DHT22;5118;48.570;7.916;2023-04-07T05:43:16;8.60;99.90
10155;DHT22;5118;48.570;7.916;2023-04-07T05:45:45;8.60;99.90
10155;DHT22;5118;48.570;7.916;2023-04-07T05:48:14;8.60;99.90
10155;DHT22;5118;48.570;7.916;2023-04-07T05:50:45;8.70;99.90
10155;DHT22;5118;48.570;7.916;2023-04-07T05:53:16;8.70;99.90
10155;DHT22;5118;48.570;7.916;2023-04-07T05:55:46;8.70;99.90
10155;DHT22;5118;48.570;7.916;2023-04-07T05:58:24;8.70;99.90
10155;DHT22;5118;48.570;7.916;2023-04-07T06:00:54;8.70;99.90
10155;DHT22;5118;48.570;7.916;2023-04-07T06:03:22;8.70;99.90
10155;DHT22;5118;48.570;7.916;2023-04-07T06:06:00;8.80;99.90
10155;DHT22;5118;48.570;7.916;2023-04-07T06:08:28;8.80;99.90
10155;DHT22;5118;48.570;7.916;2023-04-07T06:10:58;8.90;99.90
10155;DHT22;5118;48.570;7.916;2023-04-07T06:13:27;8.90;99.90
10155;DHT22;5118;48.570;7.916;2023-04-07T06:15:56;9.00;99.90
10155;DHT22;5118;48.570;7.916;2023-04-07T06:18:24;9.10;99.90
10155;DHT22;5118;48.570;7.916;2023-04-07T06:20:53;9.10;99.90
10155;DHT22;5118;48.570;7.916;2023-04-07T06:23:24;9.20;99.90
10155;DHT22;5118;48.570;7.916;2023-04-07T06:25:53;9.20;99.90
10155;DHT22;5118;48.570;7.916;2023-04-07T06:28:23;9.20;99.90
10155;DHT22;5118;48.570;7.916;2023-04-07T06:30:51;9.20;99.90
10155;DHT22;5118;48.570;7.916;2023-04-07T06:33:20;9.20;99.90
10155;DHT22;5118;48.570;7.916;2023-04-07T06:35:51;9.20;99.90
10155;DHT22;5118;48.570;7.916;2023-04-07T06:38:19;9.20;99.90
10155;DHT22;5118;48.570;7.916;2023-04-07T06:40:48;9.20;99.90
10155;DHT22;5118;48.570;7.916;2023-04-07T06:43:16;9.20;99.90
10155;DHT22;5118;48.570;7.916;2023-04-07T06:45:54;9.20;99.90
10155;DHT22;5118;48.570;7.916;2023-04-07T06:48:23;9.20;99.90
10155;DHT22;5118;48.570;7.916;2023-04-07T06:50:51;9.20;99.90
10155;DHT22;5118;48.570;7.916;2023-04-07T06:53:19;9.20;99.90
10155;DHT22;5118;48.570;7.916;2023-04-07T06:55:47;9.20;99.90
10155;DHT22;5118;48.570;7.916;2023-04-07T06:58:16;9.20;99.90
10155;DHT22;5118;48.570;7.916;2023-04-07T07:00:44;9.20;99.90
10155;DHT22;5118;48.570;7.916;2023-04-07T07:03:14;9.20;99.90
10155;DHT22;5118;48.570;7.916;2023-04-07T07:05:43;9.20;99.90
10155;DHT22;5118;48.570;7.916;2023-04-07T07:08:11;9.30;99.90
10155;DHT22;5118;48.570;7.916;2023-04-07T07:10:40;9.40;99.90
10155;DHT22;5118;48.570;7.916;2023-04-07T07:13:08;9.50;99.90
10155;DHT22;5118;48.570;7.916;2023-04-07T07:15:36;9.60;99.90
10155;DHT22;5118;48.570;7.916;2023-04-07T07:18:04;9.80;99.90
10155;DHT22;5118;48.570;7.916;2023-04-07T07:20:34;9.90;99.90
10155;DHT22;5118;48.570;7.916;2023-04-07T07:23:02;10.00;99.90
10155;DHT22;5118;48.570;7.916;2023-04-07T07:25:31;10.20;99.90
10155;DHT22;5118;48.570;7.916;2023-04-07T07:27:59;10.40;99.90
10155;DHT22;5118;48.570;7.916;2023-04-07T07:30:27;10.50;99.90
10155;DHT22;5118;48.570;7.916;2023-04-07T07:32:56;10.60;99.90
10155;DHT22;5118;48.570;7.916;2023-04-07T07:35:24;10.70;99.90
10155;DHT22;5118;48.570;7.916;2023-04-07T07:37:53;10.90;99.90
10155;DHT22;5118;48.570;7.916;2023-04-07T07:40:22;11.00;99.90
10155;DHT22;5118;48.570;7.916;2023-04-07T07:42:50;11.20;99.90
10155;DHT22;5118;48.570;7.916;2023-04-07T07:45:18;11.30;99.90
10155;DHT22;5118;48.570;7.916;2023-04-07T07:47:46;11.50;99.90
10155;DHT22;5118;48.570;7.916;2023-04-07T07:50:15;11.60;99.90
10155;DHT22;5118;48.570;7.916;2023-04-07T07:52:43;11.80;99.90
10155;DHT22;5118;48.570;7.916;2023-04-07T07:55:13;12.00;99.90
10155;DHT22;5118;48.570;7.916;2023-04-07T07:57:41;12.10;99.90
10155;DHT22;5118;48.570;7.916;2023-04-07T08:00:10;12.40;99.90
10155;DHT22;5118;48.570;7.916;2023-04-07T08:02:39;12.60;99.90
10155;DHT22;5118;48.570;7.916;2023-04-07T08:05:08;12.80;99.90
10155;DHT22;5118;48.570;7.916;2023-04-07T08:07:36;13.00;99.90
10155;DHT22;5118;48.570;7.916;2023-04-07T08:10:05;13.10;99.90
10155;DHT22;5118;48.570;7.916;2023-04-07T08:12:35;13.30;99.90
10155;DHT22;5118;48.570;7.916;2023-04-07T08:15:04;13.50;99.90
10155;DHT22;5118;48.570;7.916;2023-04-07T08:17:33;13.60;99.90
10155;DHT22;5118;48.570;7.916;2023-04-07T08:20:03;13.70;99.90
10155;DHT22;5118;48.570;7.916;2023-04-07T08:22:31;13.80;99.90
10155;DHT22;5118;48.570;7.916;2023-04-07T08:25:00;13.80;99.90
10155;DHT22;5118;48.570;7.916;2023-04-07T08:27:28;13.80;99.90
10155;DHT22;5118;48.570;7.916;2023-04-07T08:30:02;13.80;99.90
10155;DHT22;5118;48.570;7.916;2023-04-07T08:32:36;13.90;99.90
10155;DHT22;5118;48.570;7.916;2023-04-07T08:35:04;14.00;99.90
10155;DHT22;5118;48.570;7.916;2023-04-07T08:37:33;14.00;99.90
10155;DHT22;5118;48.570;7.916;2023-04-07T08:40:03;14.20;99.90
10155;DHT22;5118;48.570;7.916;2023-04-07T08:42:33;14.30;99.90
10155;DHT22;5118;48.570;7.916;2023-04-07T08:45:04;14.50;99.90
10155;DHT22;5118;48.570;7.916;2023-04-07T08:47:34;14.60;99.90
10155;DHT22;5118;48.570;7.916;2023-04-07T08:50:06;14.60;99.90
10155;DHT22;5118;48.570;7.916;2023-04-07T08:52:40;14.60;99.90
10155;DHT22;5118;48.570;7.916;2023-04-07T08:55:11;14.30;99.90
10155;DHT22;5118;48.570;7.916;2023-04-07T08:57:40;14.10;99.90
10155;DHT22;5118;48.570;7.916;2023-04-07T09:00:12;14.00;99.90
10155;DHT22;5118;48.570;7.916;2023-04-07T09:02:42;14.00;99.90
10155;DHT22;5118;48.570;7.916;2023-04-07T09:05:12;14.00;99.90
10155;DHT22;5118;48.570;7.916;2023-04-07T09:07:41;13.90;99.90
10155;DHT22;5118;48.570;7.916;2023-04-07T09:10:10;13.90;99.90
10155;DHT22;5118;48.570;7.916;2023-04-07T09:12:38;13.70;99.90
10155;DHT22;5118;48.570;7.916;2023-04-07T09:15:07;13.70;99.90
10155;DHT22;5118;48.570;7.916;2023-04-07T09:17:37;13.80;99.90
10155;DHT22;5118;48.570;7.916;2023-04-07T09:20:06;13.90;99.90
10155;DHT22;5118;48.570;7.916;2023-04-07T09:22:36;13.90;99.90
10155;DHT22;5118;48.570;7.916;2023-04-07T09:25:15;13.90;99.90
10155;DHT22;5118;48.570;7.916;2023-04-07T09:27:54;14.00;99.90
10155;DHT22;5118;48.570;7.916;2023-04-07T09:30:22;14.00;99.90
10155;DHT22;5118;48.570;7.916;2023-04-07T09:32:52;14.00;99.90
10155;DHT22;5118;48.570;7.916;2023-04-07T09:35:21;14.00;99.90
10155;DHT22;5118;48.570;7.916;2023-04-07T09:38:05;14.00;99.90
10155;DHT22;5118;48.570;7.916;2023-04-07T09:40:34;13.90;99.90
10155;DHT22;5118;48.570;7.916;2023-04-07T09:43:04;13.70;99.90
10155;DHT22;5118;48.570;7.916;2023-04-07T09:45:33;13.30;99.90
10155;DHT22;5118;48.570;7.916;2023-04-07T09:48:18;13.20;99.90
10155;DHT22;5118;48.570;7.916;2023-04-07T09:50:47;13.20;99.90
10155;DHT22;5118;48.570;7.916;2023-04-07T09:53:17;13.20;99.90
10155;DHT22;5118;48.570;7.916;2023-04-07T09:55:46;13.20;99.90
10155;DHT22;5118;48.570;7.916;2023-04-07T09:58:16;13.30;99.90
10155;DHT22;5118;48.570;7.916;2023-04-07T10:00:45;13.30;99.90
10155;DHT22;5118;48.570;7.916;2023-04-07T10:03:15;13.40;99.90
10155;DHT22;5118;48.570;7.916;2023-04-07T10:05:45;13.40;99.90
10155;DHT22;5118;48.570;7.916;2023-04-07T10:08:14;13.50;99.90
10155;DHT22;5118;48.570;7.916;2023-04-07T10:10:42;13.60;99.90
10155;DHT22;5118;48.570;7.916;2023-04-07T10:13:11;13.80;99.90
10155;DHT22;5118;48.570;7.916;2023-04-07T10:15:40;14.00;99.90
10155;DHT22;5118;48.570;7.916;2023-04-07T10:18:08;14.00;99.90
10155;DHT22;5118;48.570;7.916;2023-04-07T10:20:40;14.10;99.90
10155;DHT22;5118;48.570;7.916;2023-04-07T10:23:15;14.20;99.90
10155;DHT22;5118;48.570;7.916;2023-04-07T10:25:45;14.30;99.90
10155;DHT22;5118;48.570;7.916;2023-04-07T10:28:15;14.30;99.90
10155;DHT22;5118;48.570;7.916;2023-04-07T10:30:46;14.30;99.90
10155;DHT22;5118;48.570;7.916;2023-04-07T10:33:15;14.20;99.90
10155;DHT22;5118;48.570;7.916;2023-04-07T10:36:05;14.10;99.90
10155;DHT22;5118;48.570;7.916;2023-04-07T10:38:34;14.10;99.90
10155;DHT22;5118;48.570;7.916;2023-04-07T10:41:32;14.10;99.90
10155;DHT22;5118;48.570;7.916;2023-04-07T10:44:01;14.10;99.90
10155;DHT22;5118;48.570;7.916;2023-04-07T10:49:33;14.30;99.90
10155;DHT22;5118;48.570;7.916;2023-04-07T10:52:22;14.40;99.90
10155;DHT22;5118;48.570;7.916;2023-04-07T10:55:28;14.80;99.90
10155;DHT22;5118;48.570;7.916;2023-04-07T10:58:16;15.00;99.90
10155;DHT22;5118;48.570;7.916;2023-04-07T11:01:16;14.90;99.90
10155;DHT22;5118;48.570;7.916;2023-04-07T11:03:57;15.10;99.90
10155;DHT22;5118;48.570;7.916;2023-04-07T11:06:27;15.30;99.90
10155;DHT22;5118;48.570;7.916;2023-04-07T11:08:56;15.20;99.90
10155;DHT22;5118;48.570;7.916;2023-04-07T11:11:36;15.00;99.90
10155;DHT22;5118;48.570;7.916;2023-04-07T11:14:05;14.60;99.90
10155;DHT22;5118;48.570;7.916;2023-04-07T11:16:36;14.30;99.90
10155;DHT22;5118;48.570;7.916;2023-04-07T11:19:04;14.20;99.90
10155;DHT22;5118;48.570;7.916;2023-04-07T11:21:32;13.90;99.90
10155;DHT22;5118;48.570;7.916;2023-04-07T11:24:04;13.80;99.90
10155;DHT22;5118;48.570;7.916;2023-04-07T11:26:40;13.80;99.90
10155;DHT22;5118;48.570;7.916;2023-04-07T11:29:08;13.80;99.90
10155;DHT22;5118;48.570;7.916;2023-04-07T11:31:38;13.80;99.90
10155;DHT22;5118;48.570;7.916;2023-04-07T11:34:06;13.80;99.90
10155;DHT22;5118;48.570;7.916;2023-04-07T11:36:37;13.70;99.90
10155;DHT22;5118;48.570;7.916;2023-04-07T11:39:19;13.70;99.90
10155;DHT22;5118;48.570;7.916;2023-04-07T11:41:48;13.60;99.90
10155;DHT22;5118;48.570;7.916;2023-04-07T11:44:17;13.70;99.90
10155;DHT22;5118;48.570;7.916;2023-04-07T11:46:52;13.60;99.90
10155;DHT22;5118;48.570;7.916;2023-04-07T11:49:22;13.60;99.90
10155;DHT22;5118;48.570;7.916;2023-04-07T11:51:57;13.60;99.90
10155;DHT22;5118;48.570;7.916;2023-04-07T11:54:38;13.50;99.90
10155;DHT22;5118;48.570;7.916;2023-04-07T11:57:07;13.50;99.90
10155;DHT22;5118;48.570;7.916;2023-04-07T11:59:39;13.40;99.90
10155;DHT22;5118;48.570;7.916;2023-04-07T12:02:07;13.40;99.90
10155;DHT22;5118;48.570;7.916;2023-04-07T12:04:36;13.50;99.90
10155;DHT22;5118;48.570;7.916;2023-04-07T12:07:07;13.60;99.90
10155;DHT22;5118;48.570;7.916;2023-04-07T12:09:39;13.60;99.90
10155;DHT22;5118;48.570;7.916;2023-04-07T12:12:07;13.70;99.90
10155;DHT22;5118;48.570;7.916;2023-04-07T12:14:36;13.90;99.90
10155;DHT22;5118;48.570;7.916;2023-04-07T12:17:05;14.10;99.90
10155;DHT22;5118;48.570;7.916;2023-04-07T12:19:35;14.20;99.90
10155;DHT22;5118;48.570;7.916;2023-04-07T12:22:05;14.30;99.90
10155;DHT22;5118;48.570;7.916;2023-04-07T12:24:34;14.40;99.90
10155;DHT22;5118;48.570;7.916;2023-04-07T12:27:04;14.40;99.90
10155;DHT22;5118;48.570;7.916;2023-04-07T12:29:33;14.40;99.90
10155;DHT22;5118;48.570;7.916;2023-04-07T12:32:03;14.50;99.90
10155;DHT22;5118;48.570;7.916;2023-04-07T12:34:31;14.60;99.90
10155;DHT22;5118;48.570;7.916;2023-04-07T12:37:00;14.60;99.90
10155;DHT22;5118;48.570;7.916;2023-04-07T12:39:28;14.70;99.90
10155;DHT22;5118;48.570;7.916;2023-04-07T12:41:57;14.80;99.90
10155;DHT22;5118;48.570;7.916;2023-04-07T12:44:27;14.90;99.90
10155;DHT22;5118;48.570;7.916;2023-04-07T12:46:55;15.10;99.90
10155;DHT22;5118;48.570;7.916;2023-04-07T12:49:25;15.10;99.90
10155;DHT22;5118;48.570;7.916;2023-04-07T12:51:53;15.40;99.90
10155;DHT22;5118;48.570;7.916;2023-04-07T12:54:22;15.50;99.90
10155;DHT22;5118;48.570;7.916;2023-04-07T12:56:50;15.60;99.90
10155;DHT22;5118;48.570;7.916;2023-04-07T12:59:19;15.80;99.90
10155;DHT22;5118;48.570;7.916;2023-04-07T13:01:48;16.10;99.90
10155;DHT22;5118;48.570;7.916;2023-04-07T13:04:19;16.40;99.90
10155;DHT22;5118;48.570;7.916;2023-04-07T13:06:47;16.70;99.90
10155;DHT22;5118;48.570;7.916;2023-04-07T13:09:19;17.00;99.90
10155;DHT22;5118;48.570;7.916;2023-04-07T13:11:48;17.20;99.90
10155;DHT22;5118;48.570;7.916;2023-04-07T13:14:16;17.30;99.90
10155;DHT22;5118;48.570;7.916;2023-04-07T13:16:45;17.40;99.90
10155;DHT22;5118;48.570;7.916;2023-04-07T13:19:15;17.90;99.90
10155;DHT22;5118;48.570;7.916;2023-04-07T13:21:44;18.30;99.90
10155;DHT22;5118;48.570;7.916;2023-04-07T13:24:14;18.80;99.70
10155;DHT22;5118;48.570;7.916;2023-04-07T13:26:43;19.20;98.90
10155;DHT22;5118;48.570;7.916;2023-04-07T13:29:11;19.50;97.80
10155;DHT22;5118;48.570;7.916;2023-04-07T13:31:39;19.60;97.40
10155;DHT22;5118;48.570;7.916;2023-04-07T13:34:08;19.60;96.50
10155;DHT22;5118;48.570;7.916;2023-04-07T13:36:37;19.70;96.30
10155;DHT22;5118;48.570;7.916;2023-04-07T13:39:06;19.90;96.20
10155;DHT22;5118;48.570;7.916;2023-04-07T13:41:35;20.20;95.90
10155;DHT22;5118;48.570;7.916;2023-04-07T13:44:03;20.50;95.40
10155;DHT22;5118;48.570;7.916;2023-04-07T13:46:31;20.90;95.50
10155;DHT22;5118;48.570;7.916;2023-04-07T13:49:00;21.30;94.30
10155;DHT22;5118;48.570;7.916;2023-04-07T13:51:28;21.40;93.00
10155;DHT22;5118;48.570;7.916;2023-04-07T13:53:58;21.10;92.30
10155;DHT22;5118;48.570;7.916;2023-04-07T13:56:26;21.10;92.40
10155;DHT22;5118;48.570;7.916;2023-04-07T13:58:54;21.00;92.00
10155;DHT22;5118;48.570;7.916;2023-04-07T14:01:23;21.10;92.50
10155;DHT22;5118;48.570;7.916;2023-04-07T14:03:51;21.90;92.40
10155;DHT22;5118;48.570;7.916;2023-04-07T14:06:20;23.00;91.00
10155;DHT22;5118;48.570;7.916;2023-04-07T14:08:49;23.60;85.50
10155;DHT22;5118;48.570;7.916;2023-04-07T14:11:19;24.00;81.50
10155;DHT22;5118;48.570;7.916;2023-04-07T14:13:48;24.10;74.40
10155;DHT22;5118;48.570;7.916;2023-04-07T14:16:17;23.50;74.40
10155;DHT22;5118;48.570;7.916;2023-04-07T14:18:46;23.20;74.20
10155;DHT22;5118;48.570;7.916;2023-04-07T14:21:15;23.10;73.60
10155;DHT22;5118;48.570;7.916;2023-04-07T14:23:43;23.30;74.00
10155;DHT22;5118;48.570;7.916;2023-04-07T14:26:12;23.90;73.00
10155;DHT22;5118;48.570;7.916;2023-04-07T14:28:42;24.90;71.70
10155;DHT22;5118;48.570;7.916;2023-04-07T14:31:14;26.00;67.50
10155;DHT22;5118;48.570;7.916;2023-04-07T14:33:43;26.40;60.70
10155;DHT22;5118;48.570;7.916;2023-04-07T14:36:13;25.90;58.50
10155;DHT22;5118;48.570;7.916;2023-04-07T14:38:42;24.30;57.80
10155;DHT22;5118;48.570;7.916;2023-04-07T14:41:11;22.60;57.70
10155;DHT22;5118;48.570;7.916;2023-04-07T14:43:39;21.10;58.70
10155;DHT22;5118;48.570;7.916;2023-04-07T14:46:10;19.80;60.40
10155;DHT22;5118;48.570;7.916;2023-04-07T14:48:41;18.50;63.00
10155;DHT22;5118;48.570;7.916;2023-04-07T14:51:10;17.60;64.90
10155;DHT22;5118;48.570;7.916;2023-04-07T14:53:40;17.00;66.80
10155;DHT22;5118;48.570;7.916;2023-04-07T14:56:09;16.60;67.70
10155;DHT22;5118;48.570;7.916;2023-04-07T14:58:38;16.30;69.20
10155;DHT22;5118;48.570;7.916;2023-04-07T15:01:06;15.90;70.70
10155;DHT22;5118;48.570;7.916;2023-04-07T15:03:36;15.70;71.70
10155;DHT22;5118;48.570;7.916;2023-04-07T15:06:06;15.50;73.00
10155;DHT22;5118;48.570;7.916;2023-04-07T15:08:34;15.50;73.10
10155;DHT22;5118;48.570;7.916;2023-04-07T15:11:03;15.50;74.00
10155;DHT22;5118;48.570;7.916;2023-04-07T15:13:33;15.60;74.40
10155;DHT22;5118;48.570;7.916;2023-04-07T15:16:11;15.80;74.60
10155;DHT22;5118;48.570;7.916;2023-04-07T15:18:43;15.90;74.50
10155;DHT22;5118;48.570;7.916;2023-04-07T15:21:13;16.00;73.70
10155;DHT22;5118;48.570;7.916;2023-04-07T15:23:41;16.00;73.80
10155;DHT22;5118;48.570;7.916;2023-04-07T15:26:10;16.20;74.40
10155;DHT22;5118;48.570;7.916;2023-04-07T15:28:38;16.40;74.90
10155;DHT22;5118;48.570;7.916;2023-04-07T15:31:07;16.80;75.10
10155;DHT22;5118;48.570;7.916;2023-04-07T15:33:36;17.80;75.70
10155;DHT22;5118;48.570;7.916;2023-04-07T15:36:07;19.20;73.80
10155;DHT22;5118;48.570;7.916;2023-04-07T15:38:35;20.50;68.80
10155;DHT22;5118;48.570;7.916;2023-04-07T15:41:04;21.40;66.90
10155;DHT22;5118;48.570;7.916;2023-04-07T15:43:33;22.10;65.80
10155;DHT22;5118;48.570;7.916;2023-04-07T15:46:02;22.30;63.50
10155;DHT22;5118;48.570;7.916;2023-04-07T15:48:30;21.90;62.00
10155;DHT22;5118;48.570;7.916;2023-04-07T15:50:59;21.20;62.20
10155;DHT22;5118;48.570;7.916;2023-04-07T15:53:28;20.30;63.40
10155;DHT22;5118;48.570;7.916;2023-04-07T15:55:57;19.50;65.50
10155;DHT22;5118;48.570;7.916;2023-04-07T15:58:25;18.80;68.00
10155;DHT22;5118;48.570;7.916;2023-04-07T16:00:53;18.00;70.90
10155;DHT22;5118;48.570;7.916;2023-04-07T16:03:22;17.50;72.70
10155;DHT22;5118;48.570;7.916;2023-04-07T16:05:51;17.20;74.30
10155;DHT22;5118;48.570;7.916;2023-04-07T16:08:19;17.00;76.70
10155;DHT22;5118;48.570;7.916;2023-04-07T16:10:49;16.90;77.80
10155;DHT22;5118;48.570;7.916;2023-04-07T16:13:17;16.80;78.20
10155;DHT22;5118;48.570;7.916;2023-04-07T16:15:46;16.50;79.50